createdAt,value
2018-12-09T00:00:01.742Z,8.51
2018-12-09T00:05:02.032Z,8.46
2018-12-09T00:10:01.323Z,8.46
2018-12-09T00:15:01.829Z,8.47
2018-12-09T00:20:01.110Z,8.52
2018-12-09T00:25:01.455Z,8.42
2018-12-09T00:30:01.752Z,8.51
2018-12-09T00:35:02.019Z,8.48
2018-12-09T00:40:01.274Z,8.67
2018-12-09T00:45:01.616Z,8.57
2018-12-09T00:50:01.893Z,8.57
2018-12-09T00:55:01.103Z,8.55
2018-12-09T01:00:01.386Z,8.49
2018-12-09T01:05:01.718Z,8.61
2018-12-09T01:10:01.972Z,8.68
2018-12-09T01:15:01.201Z,8.58
2018-12-09T01:20:01.494Z,8.6
2018-12-09T01:25:01.844Z,8.6
2018-12-09T01:30:01.106Z,8.72
2018-12-09T01:35:01.421Z,8.72
2018-12-09T01:40:01.733Z,8.79
2018-12-09T01:45:02.039Z,8.89
2018-12-09T01:50:01.472Z,8.81
2018-12-09T01:55:01.836Z,8.71
2018-12-09T02:00:01.248Z,8.64
2018-12-09T02:05:01.722Z,8.58
2018-12-09T02:10:01.982Z,8.59
2018-12-09T02:15:01.639Z,8.53
2018-12-09T02:20:02.127Z,8.51
2018-12-09T02:25:01.381Z,8.59
2018-12-09T02:30:01.656Z,8.48
2018-12-09T02:35:01.994Z,8.42
2018-12-09T02:40:01.259Z,8.38
2018-12-09T02:45:01.566Z,8.39
2018-12-09T02:50:01.877Z,8.34
2018-12-09T02:55:01.167Z,8.41
2018-12-09T03:00:01.782Z,8.55
2018-12-09T03:05:01.131Z,8.61
2018-12-09T03:10:01.437Z,8.62
2018-12-09T03:15:01.746Z,8.62
2018-12-09T03:20:01.176Z,8.48
2018-12-09T03:25:01.335Z,8.53
2018-12-09T03:30:01.580Z,8.62
2018-12-09T03:35:01.934Z,8.58
2018-12-09T03:40:01.460Z,8.59
2018-12-09T03:45:01.763Z,8.35
2018-12-09T03:50:02.027Z,8.12
2018-12-09T03:55:01.305Z,7.88
2018-12-09T04:00:01.620Z,7.91
2018-12-09T04:05:01.957Z,8
2018-12-09T04:10:01.244Z,7.97
2018-12-09T04:15:01.648Z,8
2018-12-09T04:20:01.967Z,8.04
2018-12-09T04:25:01.313Z,8.02
2018-12-09T04:30:01.569Z,8.07
2018-12-09T04:35:01.914Z,8.16
2018-12-09T04:40:01.217Z,8.36
2018-12-09T04:45:01.513Z,8.5
2018-12-09T04:50:01.833Z,8.46
2018-12-09T04:55:01.186Z,8.53
2018-12-09T05:00:01.488Z,8.55
2018-12-09T05:05:01.784Z,8.58
2018-12-09T05:10:02.054Z,8.77
2018-12-09T05:15:01.319Z,8.76
2018-12-09T05:20:01.627Z,8.77
2018-12-09T05:25:01.909Z,8.83
2018-12-09T05:30:02.016Z,8.73
2018-12-09T05:35:01.307Z,8.77
2018-12-09T05:40:01.666Z,8.81
2018-12-09T05:45:01.516Z,8.82
2018-12-09T05:50:02.008Z,8.82
2018-12-09T05:55:01.279Z,8.7
2018-12-09T06:00:01.583Z,8.31
2018-12-09T06:05:01.900Z,8.09
2018-12-09T06:10:01.193Z,8.03
2018-12-09T06:15:01.492Z,8.05
2018-12-09T06:20:01.792Z,8.06
2018-12-09T06:25:02.142Z,8.11
2018-12-09T06:30:01.427Z,8.17
2018-12-09T06:35:01.422Z,8.33
2018-12-09T06:40:01.715Z,8.5
2018-12-09T06:45:02.016Z,8.49
2018-12-09T06:50:01.306Z,8.46
2018-12-09T06:55:01.614Z,8.49
2018-12-09T07:00:01.930Z,8.52
2018-12-09T07:05:01.240Z,8.49
2018-12-09T07:10:01.546Z,8.59
2018-12-09T07:15:01.846Z,8.5
2018-12-09T07:20:01.782Z,8.47
2018-12-09T07:25:02.068Z,8.45
2018-12-09T07:30:02.379Z,8.47
2018-12-09T07:35:01.189Z,8.51
2018-12-09T07:40:01.521Z,8.46
2018-12-09T07:45:01.829Z,8.47
2018-12-09T07:50:01.122Z,8.52
2018-12-09T07:55:01.394Z,8.53
2018-12-09T08:00:01.708Z,8.47
2018-12-09T08:05:01.981Z,8.58
2018-12-09T08:10:01.228Z,8.67
2018-12-09T08:15:01.513Z,8.64
2018-12-09T08:20:01.869Z,8.72
2018-12-09T08:25:01.147Z,8.73
2018-12-09T08:30:01.441Z,8.75
2018-12-09T08:35:01.710Z,8.7
2018-12-09T08:40:02.028Z,8.68
2018-12-09T08:45:01.257Z,8.71
2018-12-09T08:50:01.557Z,8.7
2018-12-09T08:55:01.846Z,8.72
2018-12-09T09:00:01.144Z,8.74
2018-12-09T09:05:01.478Z,8.75
2018-12-09T09:10:01.765Z,8.77
2018-12-09T09:15:02.038Z,8.8
2018-12-09T09:20:01.331Z,8.78
2018-12-09T09:25:01.595Z,8.73
2018-12-09T09:30:01.882Z,8.73
2018-12-09T09:35:01.189Z,8.74
2018-12-09T09:40:01.469Z,8.56
2018-12-09T09:45:01.756Z,8.37
2018-12-09T09:50:02.011Z,8.24
2018-12-09T09:55:01.260Z,8.14
2018-12-09T10:00:01.563Z,8.04
2018-12-09T10:05:01.873Z,7.91
2018-12-09T10:10:01.155Z,7.81
2018-12-09T10:15:01.453Z,7.82
2018-12-09T10:20:01.740Z,7.86
2018-12-09T10:25:02.010Z,7.94
2018-12-09T10:30:01.306Z,8.04
2018-12-09T10:35:01.618Z,8.15
2018-12-09T10:40:01.986Z,8.13
2018-12-09T10:45:01.259Z,7.94
2018-12-09T10:50:01.581Z,7.64
2018-12-09T10:55:01.854Z,7.42
2018-12-09T11:00:01.233Z,7.17
2018-12-09T11:05:01.617Z,6.87
2018-12-09T11:10:01.866Z,6.83
2018-12-09T11:15:01.127Z,6.46
2018-12-09T11:20:01.407Z,6.25
2018-12-09T11:25:01.703Z,6.19
2018-12-09T11:30:01.939Z,6.11
2018-12-09T11:35:01.218Z,6.13
2018-12-09T11:40:01.484Z,6.08
2018-12-09T11:45:01.797Z,6.06
2018-12-09T11:50:02.060Z,6.02
2018-12-09T11:55:01.312Z,6
2018-12-09T12:00:01.597Z,5.97
2018-12-09T12:05:01.909Z,5.95
2018-12-09T12:10:01.194Z,5.86
2018-12-09T12:15:01.500Z,5.89
2018-12-09T12:20:01.782Z,6.01
2018-12-09T12:25:02.084Z,6.02
2018-12-09T12:30:01.332Z,6.07
2018-12-09T12:35:01.693Z,6.1
2018-12-09T12:40:02.093Z,6.08
2018-12-09T12:45:01.368Z,6.14
2018-12-09T12:50:01.636Z,6.3
2018-12-09T12:55:01.984Z,6.39
2018-12-09T13:00:01.258Z,6.46
2018-12-09T13:05:01.549Z,6.45
2018-12-09T13:10:01.781Z,6.58
2018-12-09T13:15:02.053Z,6.73
2018-12-09T13:20:01.333Z,6.8
2018-12-09T13:25:01.672Z,6.9
2018-12-09T13:30:01.954Z,7.05
2018-12-09T13:35:01.238Z,7.22
2018-12-09T13:40:01.537Z,7.28
2018-12-09T13:45:01.868Z,7.18
2018-12-09T13:50:01.117Z,7.27
2018-12-09T13:55:01.428Z,7.15
2018-12-09T14:00:01.815Z,6.95
2018-12-09T14:05:01.147Z,6.98
2018-12-09T14:10:01.448Z,6.91
2018-12-09T14:15:01.755Z,6.84
2018-12-09T14:20:02.018Z,6.89
2018-12-09T14:25:01.842Z,6.9
2018-12-09T14:30:01.195Z,6.76
2018-12-09T14:35:01.510Z,6.76
2018-12-09T14:40:01.815Z,6.72
2018-12-09T14:45:02.074Z,6.74
2018-12-09T14:50:01.337Z,6.76
2018-12-09T14:55:01.635Z,6.76
2018-12-09T15:00:01.948Z,6.82
2018-12-09T15:05:01.255Z,6.84
2018-12-09T15:10:08.499Z,6.76
2018-12-09T15:15:01.362Z,6.74
2018-12-09T15:20:01.673Z,6.72
2018-12-09T15:25:01.932Z,6.68
2018-12-09T15:30:01.188Z,6.67
2018-12-09T15:35:01.512Z,6.75
2018-12-09T15:40:01.842Z,6.83
2018-12-09T15:45:01.232Z,6.9
2018-12-09T15:50:01.533Z,6.94
2018-12-09T15:55:01.845Z,7.07
2018-12-09T16:00:01.151Z,6.87
2018-12-09T16:05:01.464Z,7.07
2018-12-09T16:10:01.724Z,6.96
2018-12-09T16:15:01.990Z,7.02
2018-12-09T16:20:01.250Z,6.96
2018-12-09T16:25:01.566Z,7.02
2018-12-09T16:30:01.806Z,7
2018-12-09T16:35:02.088Z,6.79
2018-12-09T16:40:01.341Z,6.85
2018-12-09T16:45:01.646Z,6.89
2018-12-09T16:50:01.925Z,6.83
2018-12-09T16:55:01.327Z,6.81
2018-12-09T17:00:01.598Z,6.84
2018-12-09T17:05:01.864Z,6.85
2018-12-09T17:10:01.104Z,6.9
2018-12-09T17:15:01.413Z,6.87
2018-12-09T17:20:06.147Z,6.84
2018-12-09T17:25:01.934Z,6.81
2018-12-09T17:30:01.188Z,6.81
2018-12-09T17:35:01.456Z,6.75
2018-12-09T17:40:01.732Z,6.73
2018-12-09T17:45:01.993Z,6.71
2018-12-09T17:50:01.250Z,6.68
2018-12-09T17:55:01.566Z,6.56
2018-12-09T18:00:01.860Z,6.58
2018-12-09T18:05:01.170Z,6.54
2018-12-09T18:10:01.463Z,6.55
2018-12-09T18:15:01.773Z,6.56
2018-12-09T18:20:02.021Z,6.58
2018-12-09T18:25:01.357Z,6.59
2018-12-09T18:30:01.667Z,6.57
2018-12-09T18:35:02.040Z,6.57
2018-12-09T18:40:01.287Z,6.66
2018-12-09T18:45:01.561Z,6.72
2018-12-09T18:50:01.963Z,6.64
2018-12-09T18:55:01.249Z,6.59
2018-12-09T19:00:01.557Z,6.58
2018-12-09T19:05:01.851Z,6.56
2018-12-09T19:10:02.306Z,6.38
2018-12-09T19:15:01.666Z,6.19
2018-12-09T19:20:01.980Z,6.09
2018-12-09T19:25:01.242Z,6.02
2018-12-09T19:30:01.567Z,6.05
2018-12-09T19:35:01.876Z,6.05
2018-12-09T19:40:01.156Z,6.04
2018-12-09T19:45:01.462Z,6.02
2018-12-09T19:50:01.850Z,5.97
2018-12-09T19:55:01.123Z,6
2018-12-09T20:00:01.425Z,6.01
2018-12-09T20:05:01.725Z,6.06
2018-12-09T20:10:01.999Z,6.08
2018-12-09T20:15:01.248Z,6.1
2018-12-09T20:20:01.837Z,6.1
2018-12-09T20:25:01.386Z,6.08
2018-12-09T20:30:01.676Z,6.05
2018-12-09T20:35:01.988Z,6.05
2018-12-09T20:40:01.239Z,5.97
2018-12-09T20:45:01.579Z,5.93
2018-12-09T20:50:01.857Z,5.95
2018-12-09T20:55:01.076Z,5.91
2018-12-09T21:00:01.295Z,5.95
2018-12-09T21:05:01.548Z,5.92
2018-12-09T21:10:01.866Z,5.93
2018-12-09T21:15:01.329Z,5.89
2018-12-09T21:20:01.591Z,5.87
2018-12-09T21:25:01.824Z,5.9
2018-12-09T21:30:02.081Z,5.94
2018-12-09T21:35:01.333Z,5.91
2018-12-09T21:40:01.555Z,5.92
2018-12-09T21:45:01.803Z,5.91
2018-12-09T21:50:02.087Z,5.89
2018-12-09T21:55:01.313Z,5.86
2018-12-09T22:00:01.543Z,5.84
2018-12-09T22:05:01.807Z,5.71
2018-12-09T22:10:02.081Z,5.68
2018-12-09T22:15:01.305Z,5.66
2018-12-09T22:20:01.534Z,5.65
2018-12-09T22:25:01.758Z,5.68
2018-12-09T22:30:02.008Z,5.68
2018-12-09T22:35:01.250Z,5.69
2018-12-09T22:40:01.471Z,5.68
2018-12-09T22:45:01.713Z,5.7
2018-12-09T22:50:01.988Z,5.7
2018-12-09T22:55:01.222Z,5.75
2018-12-09T23:00:01.482Z,5.76
2018-12-09T23:05:01.728Z,5.76
2018-12-09T23:10:01.999Z,5.77
2018-12-09T23:15:01.252Z,5.78
2018-12-09T23:20:01.545Z,5.78
2018-12-09T23:25:01.814Z,5.75
2018-12-09T23:30:02.058Z,5.75
2018-12-09T23:35:01.311Z,5.78
2018-12-09T23:40:01.594Z,5.75
2018-12-09T23:45:01.865Z,5.06
2018-12-09T23:50:01.154Z,4.98
2018-12-09T23:55:01.448Z,4.78
